Time;durP1;ratioP1;P1;durP2;ratioP2;P2;SDS_P1;SDS_P2;PMS_P1;PMS_P2;Temp;Humidity;BMP_temperature;BMP_pressure;BME280_temperature;BME280_humidity;BME280_pressure;Samples;Min_cycle;Max_cycle;Signal;HPM_P1;HPM_P2
2021/06/01 00:00:53;;;;;;;6.82;3.63;;;;;;;13.61;49.06;99996.16;3484066;28;20102;-79
2021/06/01 00:02:34;;;;;;;6.70;3.50;;;;;;;13.59;49.25;100000.88;3484674;28;20528;-76
2021/06/01 00:04:15;;;;;;;7.30;4.68;;;;;;;13.59;49.21;100008.91;3484080;28;20047;-76
2021/06/01 00:05:58;;;;;;;8.30;3.92;;;;;;;13.59;49.19;100006.25;3483792;28;20045;-76
2021/06/01 00:07:38;;;;;;;7.25;4.03;;;;;;;13.60;48.94;100005.19;3484020;28;20051;-77
2021/06/01 00:09:22;;;;;;;7.22;3.33;;;;;;;13.59;49.28;100008.91;3487074;28;20041;-78
2021/06/01 00:11:07;;;;;;;8.32;4.03;;;;;;;13.56;49.15;100002.13;3483717;28;20476;-76
2021/06/01 00:12:48;;;;;;;7.07;3.80;;;;;;;13.57;49.34;100008.28;3483839;28;20045;-76
2021/06/01 00:14:28;;;;;;;10.13;4.20;;;;;;;13.53;49.27;99997.19;3483327;28;20047;-75
2021/06/01 00:16:10;;;;;;;8.73;4.43;;;;;;;13.57;49.27;100013.66;3482220;28;20045;-77
2021/06/01 00:17:51;;;;;;;8.25;3.13;;;;;;;13.56;49.55;100022.72;3466225;28;20551;-77
2021/06/01 00:19:34;;;;;;;7.05;2.95;;;;;;;13.51;49.51;100010.75;3480104;28;20041;-76
2021/06/01 00:21:15;;;;;;;9.30;3.90;;;;;;;13.52;49.77;100023.13;3483274;28;20052;-78
2021/06/01 00:22:55;;;;;;;6.72;3.72;;;;;;;13.47;49.81;100014.06;3483610;28;20500;-76
2021/06/01 00:24:36;;;;;;;7.68;3.75;;;;;;;13.45;50.05;100016.94;3482691;28;20519;-77
2021/06/01 00:26:18;;;;;;;8.48;3.65;;;;;;;13.48;49.92;100015.72;3482877;28;20049;-78
2021/06/01 00:27:58;;;;;;;10.40;4.15;;;;;;;13.45;50.11;100016.94;3441929;28;20164;-77
2021/06/01 00:29:39;;;;;;;8.15;4.18;;;;;;;13.45;50.21;100011.59;3470672;28;20037;-73
2021/06/01 00:31:20;;;;;;;7.03;3.47;;;;;;;13.45;50.30;100010.75;3479397;28;20055;-73
2021/06/01 00:33:01;;;;;;;13.10;4.38;;;;;;;13.40;50.27;100008.72;3482986;28;20041;-74
2021/06/01 00:34:41;;;;;;;7.13;3.60;;;;;;;13.41;50.71;100013.03;3474389;28;20042;-72
2021/06/01 00:36:22;;;;;;;8.10;3.97;;;;;;;13.37;50.61;100002.91;3472597;28;20091;-72
2021/06/01 00:38:06;;;;;;;7.03;4.10;;;;;;;13.39;50.45;100014.25;3480656;28;20048;-73
2021/06/01 00:39:48;;;;;;;8.40;4.35;;;;;;;13.38;50.64;100024.16;3482972;28;20032;-72
2021/06/01 00:41:28;;;;;;;4.90;4.18;;;;;;;13.33;50.90;100015.91;3482776;28;20682;-72
2021/06/01 00:43:10;;;;;;;13.55;4.03;;;;;;;13.35;50.78;100021.88;3490632;28;20041;-71
2021/06/01 00:44:51;;;;;;;8.43;4.05;;;;;;;13.35;50.82;100021.06;3496546;28;20442;-71
2021/06/01 00:46:32;;;;;;;11.30;4.25;;;;;;;13.34;51.03;100017.53;3496942;28;20131;-71
2021/06/01 00:48:13;;;;;;;8.48;3.92;;;;;;;13.33;51.06;100028.47;3487239;28;20170;-70
2021/06/01 00:49:53;;;;;;;6.80;4.38;;;;;;;13.31;51.11;100031.34;3482879;28;20130;-72
2021/06/01 00:51:35;;;;;;;8.93;4.30;;;;;;;13.30;51.35;100025.16;3482665;28;20056;-72
2021/06/01 00:53:18;;;;;;;7.65;4.13;;;;;;;13.29;51.42;100022.69;3482423;28;20040;-72
2021/06/01 00:54:59;;;;;;;10.32;4.10;;;;;;;13.29;51.45;100025.34;3478775;28;20099;-72
2021/06/01 00:56:41;;;;;;;14.48;4.35;;;;;;;13.26;51.52;100028.41;3495711;28;20045;-71
2021/06/01 00:58:24;;;;;;;13.45;4.43;;;;;;;13.24;51.71;100025.13;3481592;28;20447;-71
2021/06/01 01:00:15;;;;;;;8.77;4.50;;;;;;;13.21;51.59;100033.56;3494350;28;20052;-73
2021/06/01 01:01:56;;;;;;;14.73;4.55;;;;;;;13.22;51.59;100024.53;3496738;28;20601;-72
2021/06/01 01:03:39;;;;;;;11.70;4.25;;;;;;;13.22;51.71;100035.22;3496942;28;20040;-71
2021/06/01 01:05:21;;;;;;;10.60;4.40;;;;;;;13.22;51.59;100027.19;3477996;28;20037;-74
2021/06/01 01:07:21;;;;;;;17.48;5.13;;;;;;;13.22;51.77;100033.38;3495638;28;20063;-75
2021/06/01 01:09:10;;;;;;;7.65;4.35;;;;;;;13.22;51.70;100038.72;3495585;28;20131;-75
2021/06/01 01:10:53;;;;;;;10.63;4.60;;;;;;;13.21;51.44;100030.88;3495099;28;20052;-75
2021/06/01 01:12:42;;;;;;;6.70;4.60;;;;;;;13.21;51.65;100038.91;3493521;28;20037;-76
2021/06/01 01:14:38;;;;;;;7.72;4.32;;;;;;;13.23;51.50;100034.19;3493840;28;20044;-75
2021/06/01 01:16:21;;;;;;;12.20;4.72;;;;;;;13.21;51.37;100030.88;3495027;28;20040;-74
2021/06/01 01:18:04;;;;;;;10.23;4.72;;;;;;;13.19;51.31;100033.78;3493219;28;20052;-74
2021/06/01 01:20:10;;;;;;;7.10;4.60;;;;;;;13.26;51.05;100028.41;3493376;28;20041;-75
2021/06/01 01:21:55;;;;;;;8.30;4.22;;;;;;;13.23;50.92;100035.00;3495417;28;20048;-74
2021/06/01 01:23:37;;;;;;;9.15;4.70;;;;;;;13.20;50.74;100034.59;3495685;28;20044;-75
2021/06/01 01:25:26;;;;;;;12.32;5.15;;;;;;;13.23;50.81;100034.19;3493217;28;20446;-74
2021/06/01 01:27:32;;;;;;;9.85;4.75;;;;;;;13.25;50.90;100034.81;3494526;28;20632;-75
2021/06/01 01:29:20;;;;;;;6.78;3.92;;;;;;;13.23;50.88;100039.53;3496002;28;20530;-74
2021/06/01 01:31:06;;;;;;;10.63;4.75;;;;;;;13.22;50.82;100040.56;3496246;28;20396;-75
2021/06/01 01:32:58;;;;;;;13.50;5.57;;;;;;;13.24;50.61;100046.53;3495964;28;20040;-74
2021/06/01 01:34:39;;;;;;;;;;;;;;;13.29;50.54;100042.28;3496706;28;20570;-74
2021/06/01 01:36:20;;;;;;;12.77;4.50;;;;;;;13.23;50.49;100048.38;3496926;28;19943;-75
2021/06/01 01:38:02;;;;;;;6.72;4.78;;;;;;;13.22;50.43;100049.44;3495745;28;20047;-74
2021/06/01 01:39:48;;;;;;;11.52;5.35;;;;;;;13.21;50.54;100041.59;3493520;28;20038;-74
2021/06/01 01:41:28;;;;;;;8.13;5.03;;;;;;;13.22;50.37;100051.28;3493346;28;20036;-75
2021/06/01 01:43:14;;;;;;;9.00;5.38;;;;;;;13.20;50.38;100040.75;3496479;28;20059;-74
2021/06/01 01:44:56;;;;;;;10.15;5.22;;;;;;;13.23;50.38;100047.56;3495377;28;20044;-74
2021/06/01 01:50:24;;;;;;;9.07;5.72;;;;;;;13.28;50.12;100040.59;3494889;28;20197;-74
2021/06/01 01:52:05;;;;;;;10.27;4.97;;;;;;;13.23;50.05;100036.84;3496326;28;20041;-74
2021/06/01 01:53:53;;;;;;;10.23;4.88;;;;;;;13.33;49.93;100049.88;3496291;28;20092;-73
2021/06/01 01:55:34;;;;;;;12.10;5.25;;;;;;;13.34;49.79;100054.19;3495930;28;20052;-73
2021/06/01 01:57:16;;;;;;;7.18;4.65;;;;;;;13.34;50.02;100052.34;3496187;28;20400;-74
2021/06/01 01:58:57;;;;;;;11.15;4.55;;;;;;;13.38;49.96;100055.47;3495078;28;20527;-74
2021/06/01 02:00:37;;;;;;;7.15;4.20;;;;;;;13.37;49.80;100056.47;3492601;28;20036;-74
2021/06/01 02:02:18;;;;;;;4.90;4.15;;;;;;;13.39;49.78;100054.41;3478683;28;20078;-73
2021/06/01 02:04:00;;;;;;;7.75;5.00;;;;;;;13.41;49.81;100053.19;3492598;28;20506;-74
2021/06/01 02:05:41;;;;;;;7.43;4.50;;;;;;;13.40;49.92;100051.53;3496068;28;20047;-73
2021/06/01 02:07:22;;;;;;;7.22;4.13;;;;;;;13.43;50.15;100061.84;3494745;28;20575;-72
2021/06/01 02:09:07;;;;;;;8.50;4.30;;;;;;;13.45;50.01;100059.78;3495865;28;20138;-74
2021/06/01 02:10:48;;;;;;;8.55;4.68;;;;;;;13.43;49.95;100051.13;3496066;28;20040;-73
2021/06/01 02:12:29;;;;;;;7.10;3.90;;;;;;;13.46;50.09;100061.44;3496101;28;20484;-74
2021/06/01 02:14:10;;;;;;;7.30;4.20;;;;;;;13.48;49.97;100061.25;3494920;28;20566;-73
2021/06/01 02:15:51;;;;;;;8.27;3.50;;;;;;;13.50;49.94;100068.03;3496089;28;21182;-74
2021/06/01 02:17:32;;;;;;;7.82;4.35;;;;;;;13.51;49.93;100067.00;3495116;28;20094;-73
2021/06/01 02:19:15;;;;;;;11.90;6.07;;;;;;;13.51;49.84;100061.63;3495733;28;20051;-74
2021/06/01 02:20:58;;;;;;;10.45;5.28;;;;;;;13.56;49.79;100066.38;3495149;28;20040;-74
2021/06/01 02:24:34;;;;;;;6.40;4.22;;;;;;;13.61;49.59;100066.59;3495732;28;20042;-73
2021/06/01 02:26:29;;;;;;;7.65;3.97;;;;;;;13.69;49.47;100070.94;3494901;28;20032;-73
2021/06/01 02:28:27;;;;;;;6.93;3.60;;;;;;;13.69;49.43;100065.56;3495799;28;20128;-74
2021/06/01 02:30:11;;;;;;;5.80;4.00;;;;;;;13.72;49.38;100054.44;3495102;28;20444;-72
2021/06/01 02:31:52;;;;;;;3.72;3.28;;;;;;;13.73;49.33;100062.28;3492257;28;20610;-73
2021/06/01 02:33:36;;;;;;;9.52;4.50;;;;;;;13.74;49.50;100057.75;3478377;28;20059;-73
2021/06/01 02:35:20;;;;;;;7.10;4.35;;;;;;;13.73;49.25;100056.94;3493391;28;20518;-73
2021/06/01 02:37:01;;;;;;;15.50;6.30;;;;;;;13.80;49.38;100064.94;3495808;28;20048;-74
2021/06/01 02:38:42;;;;;;;9.25;4.75;;;;;;;13.82;49.19;100067.44;3495901;28;20041;-73
2021/06/01 02:40:23;;;;;;;7.18;4.60;;;;;;;13.84;49.29;100058.16;3480938;28;20428;-73
2021/06/01 02:42:05;;;;;;;9.10;4.38;;;;;;;13.88;49.07;100063.91;3493253;28;20407;-73
2021/06/01 02:43:46;;;;;;;7.88;4.35;;;;;;;13.88;49.20;100061.25;3498522;28;20055;-72
2021/06/01 02:45:27;;;;;;;7.38;4.03;;;;;;;13.92;49.13;100065.97;3497352;28;20466;-73
2021/06/01 02:47:08;;;;;;;10.00;4.88;;;;;;;13.90;48.87;100060.00;3495062;28;20044;-73
2021/06/01 02:48:49;;;;;;;11.02;4.25;;;;;;;13.96;48.92;100069.91;3494907;28;20036;-72
2021/06/01 02:50:30;;;;;;;9.75;4.50;;;;;;;13.99;48.86;100065.13;3494664;28;20048;-72
2021/06/01 02:52:12;;;;;;;12.40;4.65;;;;;;;14.01;48.78;100065.75;3498194;28;20135;-73
2021/06/01 02:53:54;;;;;;;8.10;4.07;;;;;;;14.02;48.67;100070.94;3497158;28;20048;-73
2021/06/01 02:55:35;;;;;;;5.50;3.55;;;;;;;14.04;48.75;100068.03;3494527;28;20076;-73
2021/06/01 02:57:18;;;;;;;7.07;3.63;;;;;;;14.08;48.74;100066.59;3494665;28;20130;-73
2021/06/01 02:59:03;;;;;;;11.40;4.60;;;;;;;14.11;48.77;100068.84;3498082;28;20040;-75
2021/06/01 03:00:44;;;;;;;10.13;3.60;;;;;;;14.08;48.57;100058.56;3498251;28;20036;-73
2021/06/01 03:02:29;;;;;;;8.45;3.92;;;;;;;14.14;48.50;100057.69;3497303;28;20119;-71
2021/06/01 03:04:09;;;;;;;6.85;3.80;;;;;;;14.16;48.56;100058.31;3498154;28;20052;-73
2021/06/01 03:05:50;;;;;;;6.60;4.22;;;;;;;14.19;48.55;100066.75;3498215;28;20037;-72
2021/06/01 03:07:32;;;;;;;6.40;3.75;;;;;;;14.21;48.36;100063.88;3497234;28;20554;-73
2021/06/01 03:09:12;;;;;;;12.77;4.00;;;;;;;14.24;48.28;100068.81;3497938;28;20040;-72
2021/06/01 03:10:59;;;;;;;6.40;3.97;;;;;;;14.27;48.18;100062.22;3498112;28;20044;-70
2021/06/01 03:14:27;;;;;;;12.20;3.78;;;;;;;14.30;48.15;100067.16;3498135;28;20044;-71
2021/06/01 03:16:07;;;;;;;7.75;3.75;;;;;;;14.32;47.87;100065.91;3498047;28;20036;-71
2021/06/01 03:17:48;;;;;;;6.93;3.42;;;;;;;14.31;47.80;100063.47;3497930;28;20452;-71
2021/06/01 03:19:29;;;;;;;7.82;4.05;;;;;;;14.35;47.63;100060.16;3496973;28;20094;-71
2021/06/01 03:21:11;;;;;;;6.45;4.68;;;;;;;14.35;47.63;100062.84;3494270;28;20037;-72
2021/06/01 03:22:51;;;;;;;10.20;4.53;;;;;;;14.40;47.32;100067.53;3497621;28;20048;-72
2021/06/01 03:24:32;;;;;;;8.32;3.80;;;;;;;14.43;47.43;100071.66;3497779;28;20123;-73
2021/06/01 03:26:14;;;;;;;8.75;3.92;;;;;;;14.42;47.12;100070.03;3496718;28;20131;-74
2021/06/01 03:27:55;;;;;;;6.18;3.35;;;;;;;14.44;46.94;100068.78;3497699;28;20127;-73
2021/06/01 03:29:35;;;;;;;6.28;4.10;;;;;;;14.49;46.70;100071.66;3487673;28;20507;-73
2021/06/01 03:31:16;;;;;;;3.67;2.80;;;;;;;14.53;46.39;100074.75;3483064;28;20052;-73
2021/06/01 03:32:57;;;;;;;4.90;3.00;;;;;;;14.54;46.29;100071.88;3483997;28;20044;-73
2021/06/01 03:34:38;;;;;;;4.75;2.78;;;;;;;14.57;45.93;100079.50;3484151;28;20052;-73
2021/06/01 03:36:19;;;;;;;6.03;2.63;;;;;;;14.61;45.75;100080.75;3484109;28;20044;-73
2021/06/01 03:38:00;;;;;;;8.55;3.03;;;;;;;14.62;45.67;100078.88;3483879;28;20040;-72
2021/06/01 03:39:41;;;;;;;9.30;2.95;;;;;;;14.65;45.63;100078.44;3484221;28;20048;-72
2021/06/01 03:41:22;;;;;;;4.82;2.53;;;;;;;14.67;45.52;100079.06;3484352;28;20518;-73
2021/06/01 03:43:03;;;;;;;3.72;2.63;;;;;;;14.67;45.50;100079.06;3483139;28;20130;-75
2021/06/01 03:44:44;;;;;;;4.72;2.35;;;;;;;14.72;45.34;100081.94;3483938;28;20075;-81
2021/06/01 03:46:24;;;;;;;6.10;3.13;;;;;;;14.76;45.13;100090.38;3483074;28;20045;-77
2021/06/01 03:48:05;;;;;;;3.55;2.45;;;;;;;14.80;45.21;100080.88;3483879;28;20037;-78
2021/06/01 03:49:46;;;;;;;4.97;2.90;;;;;;;14.82;45.00;100085.00;3484386;28;20080;-76
2021/06/01 03:51:27;;;;;;;6.30;2.53;;;;;;;14.88;44.99;100087.88;3483958;28;20053;-76
2021/06/01 03:53:08;;;;;;;3.92;2.50;;;;;;;14.92;44.81;100084.56;3483816;28;20500;-72
2021/06/01 03:54:49;;;;;;;6.13;2.40;;;;;;;14.94;44.63;100081.63;3483718;28;20077;-74
2021/06/01 03:56:30;;;;;;;5.25;2.78;;;;;;;14.98;44.52;100088.25;3483394;28;20508;-74
2021/06/01 03:58:10;;;;;;;5.10;3.15;;;;;;;15.04;44.47;100087.38;3483892;28;20053;-75
2021/06/01 03:59:51;;;;;;;5.55;3.03;;;;;;;15.08;44.41;100087.78;3482909;28;20577;-79
2021/06/01 04:01:32;;;;;;;3.55;2.63;;;;;;;15.07;44.10;100089.63;3483622;28;20041;-78
2021/06/01 04:03:13;;;;;;;6.30;3.78;;;;;;;15.10;44.22;100093.75;3484362;28;20052;-77
2021/06/01 04:04:53;;;;;;;6.18;4.40;;;;;;;15.12;44.07;100095.19;3485486;28;20450;-77
2021/06/01 04:06:35;;;;;;;7.43;4.25;;;;;;;15.13;44.03;100091.47;3484228;28;20140;-78
2021/06/01 04:08:15;;;;;;;8.18;3.80;;;;;;;15.12;44.06;100087.13;3485567;28;20044;-79
2021/06/01 04:09:56;;;;;;;10.32;4.18;;;;;;;15.14;43.79;100100.34;3482945;28;20606;-77
2021/06/01 04:11:37;;;;;;;5.20;3.40;;;;;;;15.12;43.81;100099.72;3483793;28;20381;-76
2021/06/01 04:13:18;;;;;;;4.30;3.03;;;;;;;15.11;43.79;100100.78;3484126;28;20535;-75
2021/06/01 04:14:59;;;;;;;4.72;2.90;;;;;;;15.09;43.74;100098.28;3483677;28;20133;-76
2021/06/01 04:16:40;;;;;;;3.40;2.83;;;;;;;15.05;43.73;100102.47;3483933;28;20515;-75
2021/06/01 04:18:20;;;;;;;3.53;2.28;;;;;;;15.04;43.77;100104.28;3483872;28;20075;-76
2021/06/01 04:20:04;;;;;;;4.65;2.22;;;;;;;15.00;43.71;100095.03;3483753;28;20044;-76
2021/06/01 04:21:45;;;;;;;5.07;2.10;;;;;;;15.02;43.71;100094.81;3483799;28;20037;-76
2021/06/01 04:23:26;;;;;;;4.13;2.47;;;;;;;14.98;43.80;100089.06;3482890;28;20037;-77
2021/06/01 04:25:08;;;;;;;6.40;2.72;;;;;;;15.07;43.94;100104.91;3483586;28;20043;-77
2021/06/01 04:26:49;;;;;;;3.38;2.45;;;;;;;15.08;43.73;100101.22;3483539;28;20106;-76
2021/06/01 04:28:29;;;;;;;6.05;2.10;;;;;;;15.10;43.81;100099.09;3483651;28;20044;-77
2021/06/01 04:30:11;;;;;;;6.20;2.53;;;;;;;15.15;43.76;100097.44;3483482;28;20052;-75
2021/06/01 04:31:51;;;;;;;3.95;2.15;;;;;;;15.23;43.59;100102.56;3482429;28;20459;-74
2021/06/01 04:33:33;;;;;;;6.28;2.28;;;;;;;15.27;43.39;100101.09;3483270;28;20475;-77
2021/06/01 04:35:14;;;;;;;4.88;2.10;;;;;;;15.38;43.43;100107.63;3482409;28;20128;-75
2021/06/01 04:36:55;;;;;;;4.30;1.98;;;;;;;15.43;43.26;100107.00;3483364;28;20041;-76
2021/06/01 04:38:36;;;;;;;10.13;2.15;;;;;;;15.51;43.08;100101.34;3483517;28;20124;-76
2021/06/01 04:40:17;;;;;;;2.33;1.80;;;;;;;15.58;43.15;100106.69;3483596;28;20044;-76
2021/06/01 04:41:57;;;;;;;2.97;1.80;;;;;;;15.62;42.94;100111.44;3483420;28;20412;-75
2021/06/01 04:43:38;;;;;;;3.83;2.08;;;;;;;15.67;42.84;100100.84;3483633;28;20048;-76
2021/06/01 04:45:19;;;;;;;2.13;1.67;;;;;;;15.76;42.70;100108.66;3482505;28;20131;-78
2021/06/01 04:47:00;;;;;;;1.77;1.55;;;;;;;15.81;42.56;100111.53;3483172;28;20051;-75
2021/06/01 04:48:40;;;;;;;4.20;1.70;;;;;;;15.88;42.48;100115.00;3483600;28;20041;-78
2021/06/01 04:50:21;;;;;;;3.70;1.63;;;;;;;15.94;42.63;100108.72;3483846;28;20045;-77
2021/06/01 04:52:03;;;;;;;6.32;2.17;;;;;;;15.92;42.36;100100.88;3483655;28;20049;-76
2021/06/01 04:53:48;;;;;;;3.13;1.58;;;;;;;16.03;42.30;100102.06;3482677;28;20098;-76
2021/06/01 04:55:29;;;;;;;2.83;2.08;;;;;;;16.08;42.17;100104.91;3479468;28;20143;-75
2021/06/01 04:57:10;;;;;;;3.58;1.77;;;;;;;16.12;42.15;100097.19;3482797;28;20048;-74
2021/06/01 04:58:52;;;;;;;4.97;2.00;;;;;;;16.18;42.20;100099.00;3482537;28;20037;-74
2021/06/01 05:00:33;;;;;;;5.97;2.50;;;;;;;16.23;41.98;100092.97;3479297;28;20080;-72
2021/06/01 05:02:13;;;;;;;4.15;2.05;;;;;;;16.28;42.12;100101.19;3482702;28;20033;-73
2021/06/01 05:03:54;;;;;;;3.22;2.70;;;;;;;16.31;41.85;100100.75;3481557;28;20412;-73
2021/06/01 05:05:35;;;;;;;17.67;11.30;;;;;;;16.37;41.87;100097.19;3481083;28;20079;-76
2021/06/01 05:07:16;;;;;;;11.23;6.75;;;;;;;16.42;42.09;100094.66;3482557;28;20132;-74
2021/06/01 05:08:56;;;;;;;8.23;3.95;;;;;;;16.45;41.85;100102.25;3483057;28;20045;-76
2021/06/01 05:10:37;;;;;;;4.43;3.22;;;;;;;16.53;41.76;100101.16;3483064;28;20567;-77
2021/06/01 05:12:18;;;;;;;6.63;2.95;;;;;;;16.57;41.89;100100.47;3481755;28;20100;-75
2021/06/01 05:13:59;;;;;;;5.53;3.70;;;;;;;16.61;41.80;100100.03;3482529;28;20118;-76
2021/06/01 05:15:40;;;;;;;7.20;2.70;;;;;;;16.64;41.70;100094.19;3468443;28;20037;-75
2021/06/01 05:17:21;;;;;;;4.38;2.22;;;;;;;16.68;41.65;100101.59;3480207;28;20056;-75
2021/06/01 05:19:01;;;;;;;2.85;1.83;;;;;;;16.71;41.39;100094.94;3482532;28;20075;-74
2021/06/01 05:20:42;;;;;;;3.33;1.92;;;;;;;16.74;41.38;100099.88;3483052;28;20037;-75
2021/06/01 05:22:23;;;;;;;2.78;1.77;;;;;;;16.79;41.39;100094.69;3482667;28;20044;-69
2021/06/01 05:24:04;;;;;;;6.97;1.95;;;;;;;16.83;41.23;100095.03;3483276;28;20049;-78
2021/06/01 05:25:45;;;;;;;5.53;2.60;;;;;;;16.87;41.17;100099.75;3484885;28;20040;-78
2021/06/01 05:27:26;;;;;;;4.30;2.70;;;;;;;16.90;41.18;100099.28;3484379;28;20049;-78
2021/06/01 05:29:07;;;;;;;12.98;5.15;;;;;;;16.94;41.08;100100.50;3482876;28;20067;-75
2021/06/01 05:33:10;;;;;;;6.63;3.00;;;;;;;17.05;40.84;100095.41;3482591;28;20037;-76
2021/06/01 05:34:58;;;;;;;4.22;2.33;;;;;;;17.12;40.94;100090.75;3481388;28;20393;-77
2021/06/01 05:36:40;;;;;;;2.92;1.98;;;;;;;17.20;40.55;100095.81;3483164;28;20538;-77
2021/06/01 05:38:21;;;;;;;5.25;2.10;;;;;;;17.22;40.58;100089.16;3482938;28;20041;-77
2021/06/01 05:40:03;;;;;;;1.70;1.52;;;;;;;17.33;40.50;100092.94;3483270;28;20040;-78
2021/06/01 05:41:44;;;;;;;5.00;1.77;;;;;;;17.39;40.62;100097.41;3482703;28;20037;-77
2021/06/01 05:43:25;;;;;;;2.22;1.63;;;;;;;17.46;40.14;100096.50;3481871;28;20041;-78
2021/06/01 05:45:07;;;;;;;5.72;2.17;;;;;;;17.53;40.32;100102.59;3482964;28;20048;-78
2021/06/01 05:46:47;;;;;;;2.05;1.70;;;;;;;17.57;40.06;100099.22;3482834;28;20055;-78
2021/06/01 05:48:28;;;;;;;4.53;2.10;;;;;;;17.65;39.76;100098.06;3483903;28;20040;-79
2021/06/01 05:50:09;;;;;;;4.28;2.13;;;;;;;17.74;39.57;100103.97;3483414;28;20124;-78
2021/06/01 05:51:50;;;;;;;13.40;6.23;;;;;;;17.75;39.67;100098.31;3483059;28;20044;-79
2021/06/01 05:53:31;;;;;;;12.38;6.82;;;;;;;17.74;39.50;100094.00;3483227;28;20563;-78
2021/06/01 05:55:12;;;;;;;11.35;6.95;;;;;;;17.83;39.66;100098.00;3481876;28;20114;-78
2021/06/01 05:56:52;;;;;;;8.20;5.57;;;;;;;17.85;39.69;100093.19;3482710;28;20037;-79
2021/06/01 05:58:33;;;;;;;7.03;4.32;;;;;;;17.96;39.74;100106.94;3482847;28;20068;-79
2021/06/01 06:00:14;;;;;;;5.47;3.05;;;;;;;17.97;39.70;100104.03;3482529;28;20037;-79
2021/06/01 06:01:55;;;;;;;3.95;2.65;;;;;;;17.97;39.33;100106.72;3483141;28;20040;-79
2021/06/01 06:03:36;;;;;;;2.60;2.38;;;;;;;17.97;39.53;100106.72;3482121;28;20037;-79
2021/06/01 06:05:17;;;;;;;4.35;2.47;;;;;;;17.98;39.51;100111.03;3482591;28;20044;-79
2021/06/01 06:06:58;;;;;;;3.08;2.25;;;;;;;17.98;39.37;100104.84;3482439;28;20050;-79
2021/06/01 06:08:39;;;;;;;1.65;1.52;;;;;;;18.04;39.47;100110.13;3482840;28;20127;-79
2021/06/01 06:10:20;;;;;;;8.50;2.25;;;;;;;18.11;39.26;100114.59;3481792;28;20087;-78
2021/06/01 06:12:00;;;;;;;5.38;1.80;;;;;;;18.14;39.14;100109.53;3482926;28;20048;-79
2021/06/01 06:13:41;;;;;;;5.05;1.98;;;;;;;18.17;39.45;100097.44;3484220;28;20045;-79
2021/06/01 06:15:22;;;;;;;8.40;5.60;;;;;;;18.23;39.11;100100.03;3483448;28;20048;-78
2021/06/01 06:17:41;;;;;;;10.43;4.00;;;;;;;18.40;38.93;100102.84;3483125;28;20033;-77
2021/06/01 06:19:23;;;;;;;7.82;3.10;;;;;;;18.44;38.77;100105.91;3484823;28;20049;-79
2021/06/01 06:21:06;;;;;;;4.70;3.47;;;;;;;18.53;38.47;100112.56;3486048;28;20044;-79
2021/06/01 06:22:47;;;;;;;3.10;2.30;;;;;;;18.61;38.69;100117.63;3485587;28;20041;-80
2021/06/01 06:24:30;;;;;;;7.28;4.43;;;;;;;18.68;38.73;100120.19;3485080;28;20088;-78
2021/06/01 06:26:10;;;;;;;11.13;3.83;;;;;;;18.72;38.38;100122.19;3486074;28;20114;-78
2021/06/01 06:27:51;;;;;;;4.07;3.08;;;;;;;18.80;38.33;100122.91;3485209;28;20044;-80
2021/06/01 06:29:32;;;;;;;4.55;3.00;;;;;;;18.89;38.59;100116.88;3485262;28;20036;-78
2021/06/01 06:31:13;;;;;;;10.60;2.60;;;;;;;18.96;38.33;100112.16;3484615;28;20065;-79
2021/06/01 06:32:53;;;;;;;5.28;2.40;;;;;;;19.04;38.26;100119.06;3485390;28;20037;-78
2021/06/01 06:34:34;;;;;;;2.60;1.67;;;;;;;19.08;38.13;100117.53;3485361;28;20514;-79
2021/06/01 06:36:15;;;;;;;2.53;1.65;;;;;;;19.16;37.75;100114.47;3485526;28;20037;-80
2021/06/01 06:37:56;;;;;;;2.60;1.50;;;;;;;19.19;37.77;100115.84;3485795;28;20079;-79
2021/06/01 06:39:36;;;;;;;1.48;1.35;;;;;;;19.18;37.96;100120.44;3485324;28;20101;-79
2021/06/01 06:41:17;;;;;;;1.73;1.42;;;;;;;19.10;37.87;100111.88;3485592;28;20036;-80
2021/06/01 06:42:58;;;;;;;3.13;1.65;;;;;;;19.12;37.48;100107.88;3485625;28;20124;-79
2021/06/01 06:44:41;;;;;;;7.00;1.98;;;;;;;19.24;37.53;100110.56;3485794;28;20103;-78
2021/06/01 06:46:29;;;;;;;6.05;1.83;;;;;;;19.44;37.73;100112.81;3485707;28;20033;-79
2021/06/01 06:48:10;;;;;;;6.03;1.67;;;;;;;19.66;37.25;100117.53;3485019;28;20045;-77
2021/06/01 06:49:52;;;;;;;5.33;2.30;;;;;;;19.91;36.84;100109.88;3485458;28;20072;-78
2021/06/01 06:51:33;;;;;;;6.03;2.08;;;;;;;20.17;36.79;100118.41;3485664;28;20045;-78
2021/06/01 06:53:14;;;;;;;2.43;1.73;;;;;;;20.42;36.41;100115.22;3484540;28;20041;-79
2021/06/01 06:54:54;;;;;;;5.18;1.60;;;;;;;20.63;36.54;100110.97;3482661;28;20104;-80
2021/06/01 06:56:35;;;;;;;4.20;1.87;;;;;;;20.84;35.93;100112.03;3485812;28;20053;-78
2021/06/01 06:58:16;;;;;;;8.47;1.80;;;;;;;21.03;35.62;100107.13;3487061;28;20503;-81
2021/06/01 06:59:57;;;;;;;3.78;1.95;;;;;;;21.19;35.58;100092.66;3485369;28;20037;-79
2021/06/01 07:01:38;;;;;;;3.22;1.63;;;;;;;21.38;35.45;100101.31;3485464;28;20086;-81
2021/06/01 07:03:19;;;;;;;4.07;1.33;;;;;;;21.56;34.98;100117.22;3484443;28;20049;-80
2021/06/01 07:05:00;;;;;;;4.43;1.50;;;;;;;21.76;35.08;100122.00;3484557;28;20044;-79
2021/06/01 07:06:46;;;;;;;4.78;1.63;;;;;;;21.95;34.54;100110.75;3484151;28;20044;-80
2021/06/01 07:08:27;;;;;;;1.27;1.00;;;;;;;;;;3484499;28;20410;-81
2021/06/01 07:10:11;;;;;;;2.50;1.20;;;;;;;22.31;34.17;100111.06;3485098;28;20033;-79
2021/06/01 07:11:52;;;;;;;6.53;1.70;;;;;;;22.43;34.12;100098.06;3484962;28;20087;-79
2021/06/01 07:13:42;;;;;;;4.73;1.53;;;;;;;22.67;34.18;100113.97;3484930;28;20041;-79
2021/06/01 07:15:23;;;;;;;4.07;1.75;;;;;;;22.84;34.07;100104.50;3456583;28;20045;-79
2021/06/01 07:17:04;;;;;;;6.47;2.40;;;;;;;23.00;34.12;100110.88;3479724;28;20045;-79
2021/06/01 07:18:45;;;;;;;2.90;1.10;;;;;;;23.17;33.77;100115.28;3485694;28;20041;-81
2021/06/01 07:20:31;;;;;;;5.07;1.50;;;;;;;23.34;33.91;100112.31;3486121;28;20492;-81
2021/06/01 07:22:12;;;;;;;4.43;1.55;;;;;;;23.55;34.00;100115.91;3471634;28;20045;-80
2021/06/01 07:23:53;;;;;;;4.50;1.00;;;;;;;23.74;33.67;100117.03;3482223;28;20519;-75
2021/06/01 07:25:33;;;;;;;3.37;1.10;;;;;;;23.88;33.49;100107.25;3484821;28;20048;-78
2021/06/01 07:27:15;;;;;;;6.03;1.50;;;;;;;23.97;33.06;100104.78;3481612;28;20044;-80
2021/06/01 07:28:56;;;;;;;5.97;1.30;;;;;;;24.05;33.00;100111.59;3472642;28;20045;-79
2021/06/01 07:30:37;;;;;;;2.10;1.17;;;;;;;24.12;33.04;100112.13;3485655;28;20045;-77
2021/06/01 07:32:20;;;;;;;5.45;1.67;;;;;;;24.24;32.84;100118.13;3483350;28;20049;-78
2021/06/01 07:34:02;;;;;;;4.20;1.30;;;;;;;24.36;32.57;100123.25;3474561;28;20064;-78
2021/06/01 07:35:43;;;;;;;10.93;2.35;;;;;;;24.41;32.59;100115.06;3473405;28;20061;-81
2021/06/01 07:37:27;;;;;;;3.15;1.10;;;;;;;24.47;32.19;100096.84;3479386;28;20057;-79
2021/06/01 07:39:07;;;;;;;1.27;1.00;;;;;;;24.64;32.65;100105.50;3475891;28;20480;-79
2021/06/01 07:40:48;;;;;;;5.97;1.20;;;;;;;24.81;32.55;100102.47;3484907;28;20450;-79
2021/06/01 07:42:30;;;;;;;1.93;1.10;;;;;;;24.98;32.36;100105.63;3465310;28;20072;-80
2021/06/01 07:44:11;;;;;;;2.42;1.33;;;;;;;25.10;32.31;100093.59;3475028;28;20128;-77
2021/06/01 07:45:52;;;;;;;4.47;1.10;;;;;;;25.32;32.05;100102.22;3476536;28;20037;-78
2021/06/01 07:47:38;;;;;;;4.90;1.52;;;;;;;25.46;31.41;100099.69;3477795;28;20033;-78
2021/06/01 07:49:19;;;;;;;2.40;1.55;;;;;;;25.54;31.13;100104.53;3479819;28;20051;-76
2021/06/01 07:51:00;;;;;;;2.67;1.30;;;;;;;25.64;31.48;100103.66;3491275;28;20033;-77
2021/06/01 07:52:42;;;;;;;4.22;1.33;;;;;;;25.73;30.99;100096.47;3479277;28;20033;-79
2021/06/01 07:54:27;;;;;;;5.95;1.50;;;;;;;25.87;30.90;100102.13;3475578;28;20598;-79
2021/06/01 07:56:10;;;;;;;3.33;1.33;;;;;;;26.01;30.75;100092.16;3477188;28;20065;-83
2021/06/01 07:57:53;;;;;;;3.92;1.60;;;;;;;26.18;30.70;100102.66;3482057;28;20154;-80
2021/06/01 07:59:36;;;;;;;2.67;1.38;;;;;;;26.35;30.82;100096.75;3460187;28;20037;-80
2021/06/01 08:01:18;;;;;;;2.10;1.25;;;;;;;26.44;30.48;100100.47;3479869;28;20055;-78
2021/06/01 08:02:59;;;;;;;2.92;1.45;;;;;;;26.53;30.56;100090.53;3481502;28;20045;-79
2021/06/01 08:04:42;;;;;;;6.40;1.42;;;;;;;26.70;29.98;100097.50;3478296;28;20120;-79